createdAt,value
2019-02-07T00:01:15.370Z,8.97
2019-02-07T00:03:45.116Z,8.47
2019-02-07T00:06:14.826Z,11.93
2019-02-07T00:08:44.325Z,10.43
2019-02-07T00:11:13.891Z,8.33
2019-02-07T00:13:43.424Z,8.47
2019-02-07T00:16:12.974Z,7.97
2019-02-07T00:18:42.837Z,8.50
2019-02-07T00:21:12.364Z,8.77
2019-02-07T00:23:41.876Z,8.67
2019-02-07T00:26:11.490Z,7.83
2019-02-07T00:28:40.999Z,8.80
2019-02-07T00:31:12.042Z,7.87
2019-02-07T00:33:41.689Z,7.23
2019-02-07T00:36:11.246Z,7.17
2019-02-07T00:38:40.775Z,6.87
2019-02-07T00:41:10.349Z,5.90
2019-02-07T00:43:39.892Z,6.63
2019-02-07T00:46:09.447Z,6.37
2019-02-07T00:48:38.945Z,6.43
2019-02-07T00:51:08.475Z,6.53
2019-02-07T00:53:38.041Z,6.50
2019-02-07T00:56:07.585Z,7.77
2019-02-07T00:58:37.096Z,6.30
2019-02-07T01:01:07.021Z,5.97
2019-02-07T01:03:36.538Z,6.20
2019-02-07T01:06:06.370Z,6.10
2019-02-07T01:08:35.931Z,6.23
2019-02-07T01:11:05.655Z,7.60
2019-02-07T01:13:35.272Z,6.17
2019-02-07T01:16:05.503Z,6.20
2019-02-07T01:18:35.030Z,6.30
2019-02-07T01:21:04.656Z,6.57
2019-02-07T01:23:34.202Z,6.00
2019-02-07T01:26:03.733Z,5.63
2019-02-07T01:28:33.269Z,5.50
2019-02-07T01:31:02.983Z,6.10
2019-02-07T01:33:32.624Z,5.93
2019-02-07T01:36:02.091Z,7.97
2019-02-07T01:38:32.684Z,6.00
2019-02-07T01:41:02.268Z,6.17
2019-02-07T01:43:31.766Z,6.30
2019-02-07T01:46:01.230Z,5.63
2019-02-07T01:48:30.712Z,6.33
2019-02-07T01:51:00.228Z,6.63
2019-02-07T01:53:29.627Z,7.10
2019-02-07T01:55:59.145Z,6.23
2019-02-07T01:58:28.593Z,6.07
2019-02-07T02:00:58.037Z,6.00
2019-02-07T02:03:27.541Z,6.10
2019-02-07T02:05:56.979Z,7.13
2019-02-07T02:08:26.470Z,6.57
2019-02-07T02:10:56.078Z,5.93
2019-02-07T02:13:25.539Z,5.87
2019-02-07T02:15:54.984Z,6.23
2019-02-07T02:18:24.452Z,5.93
2019-02-07T02:20:53.894Z,6.03
2019-02-07T02:23:24.983Z,6.17
2019-02-07T02:25:54.519Z,5.47
2019-02-07T02:28:24.024Z,5.97
2019-02-07T02:30:53.454Z,6.97
2019-02-07T02:33:22.946Z,5.97
2019-02-07T02:35:52.425Z,6.40
2019-02-07T02:38:21.987Z,6.30
2019-02-07T02:40:51.425Z,6.43
2019-02-07T02:43:20.882Z,6.73
2019-02-07T02:45:50.370Z,9.20
2019-02-07T02:48:19.991Z,7.80
2019-02-07T02:50:49.429Z,6.87
2019-02-07T02:53:18.879Z,6.63
2019-02-07T02:55:48.481Z,8.33
2019-02-07T02:58:17.873Z,6.87
2019-02-07T03:01:04.705Z,7.17
2019-02-07T03:03:39.184Z,7.37
2019-02-07T03:06:17.869Z,8.47
2019-02-07T03:09:06.235Z,7.70
2019-02-07T03:11:46.939Z,7.90
2019-02-07T03:14:30.093Z,6.73
2019-02-07T03:17:26.666Z,7.90
2019-02-07T03:20:13.738Z,6.50
2019-02-07T03:23:04.890Z,7.70
2019-02-07T03:25:55.006Z,8.00
2019-02-07T03:28:58.456Z,6.77
2019-02-07T03:31:50.937Z,7.40
2019-02-07T03:34:37.830Z,7.80
2019-02-07T03:37:41.285Z,6.07
2019-02-07T03:40:49.136Z,8.03
2019-02-07T03:43:37.615Z,6.30
2019-02-07T03:46:26.623Z,6.53
2019-02-07T03:49:17.755Z,6.10
2019-02-07T03:52:09.094Z,6.83
2019-02-07T03:55:12.638Z,6.10
2019-02-07T03:58:06.991Z,6.33
2019-02-07T04:00:54.094Z,6.00
2019-02-07T04:04:00.671Z,6.33
2019-02-07T04:06:40.683Z,6.37
2019-02-07T04:09:18.762Z,6.40
2019-02-07T04:12:13.484Z,6.50
2019-02-07T04:15:00.464Z,6.50
2019-02-07T04:17:55.294Z,6.00
2019-02-07T04:20:42.424Z,6.57
2019-02-07T04:23:23.948Z,6.17
2019-02-07T04:26:12.448Z,5.87
2019-02-07T04:29:06.685Z,6.33
2019-02-07T04:31:55.190Z,6.07
2019-02-07T04:34:42.242Z,6.60
2019-02-07T04:37:29.200Z,7.00
2019-02-07T04:40:26.364Z,7.13
2019-02-07T04:43:33.026Z,6.20
2019-02-07T04:46:27.122Z,7.83
2019-02-07T04:49:04.700Z,7.03
2019-02-07T04:51:51.629Z,8.53
2019-02-07T04:54:38.525Z,7.07
2019-02-07T04:57:25.567Z,8.10
2019-02-07T05:00:14.594Z,6.63
2019-02-07T05:03:10.769Z,6.47
2019-02-07T05:06:01.779Z,6.77
2019-02-07T05:08:48.766Z,5.63
2019-02-07T05:11:46.027Z,6.23
2019-02-07T05:14:33.903Z,5.70
2019-02-07T05:17:22.414Z,6.53
2019-02-07T05:20:10.890Z,5.77
2019-02-07T05:22:56.276Z,6.33
2019-02-07T05:25:39.010Z,5.67
2019-02-07T05:28:30.296Z,5.50
2019-02-07T05:31:15.003Z,5.60
2019-02-07T05:34:18.570Z,8.27
2019-02-07T05:37:05.747Z,5.60
2019-02-07T05:39:52.694Z,5.77
2019-02-07T05:42:41.195Z,5.90
2019-02-07T05:45:40.105Z,5.33
2019-02-07T05:48:31.325Z,6.37
2019-02-07T05:51:28.698Z,5.33
2019-02-07T05:54:23.061Z,5.33
2019-02-07T05:57:20.644Z,5.50
2019-02-07T06:00:07.561Z,6.07
2019-02-07T06:03:04.996Z,7.07
2019-02-07T06:05:51.976Z,6.37
2019-02-07T06:08:49.375Z,5.67
2019-02-07T06:11:52.779Z,5.17
2019-02-07T06:14:44.051Z,6.30
2019-02-07T06:17:35.368Z,5.13
2019-02-07T06:20:30.393Z,4.30
2019-02-07T06:23:17.406Z,6.07
2019-02-07T06:26:08.549Z,5.97
2019-02-07T06:28:57.576Z,5.90
2019-02-07T06:31:45.359Z,5.23
2019-02-07T06:34:32.451Z,7.00
2019-02-07T06:37:20.975Z,5.53
2019-02-07T06:40:15.184Z,8.20
2019-02-07T06:42:52.918Z,8.07
2019-02-07T06:45:41.353Z,7.27
2019-02-07T06:48:32.718Z,6.27
2019-02-07T06:51:08.493Z,5.23
2019-02-07T06:53:56.957Z,5.50
2019-02-07T06:56:53.643Z,7.20
2019-02-07T06:59:32.968Z,6.77
2019-02-07T07:02:36.533Z,7.70
2019-02-07T07:05:43.467Z,5.73
2019-02-07T07:08:39.381Z,7.50
2019-02-07T07:11:27.908Z,6.83
2019-02-07T07:14:09.235Z,7.77
2019-02-07T07:16:56.628Z,7.23
2019-02-07T07:20:02.960Z,6.43
2019-02-07T07:22:44.927Z,8.20
2019-02-07T07:25:33.645Z,7.07
2019-02-07T07:28:25.197Z,7.30
2019-02-07T07:31:25.616Z,5.47
2019-02-07T07:34:06.904Z,5.10
2019-02-07T07:36:58.164Z,9.03
2019-02-07T07:39:38.025Z,6.77
2019-02-07T07:42:44.434Z,7.07
2019-02-07T07:45:41.240Z,8.30
2019-02-07T07:48:46.268Z,9.10
2019-02-07T07:51:49.896Z,6.03
2019-02-07T07:54:38.370Z,8.53
2019-02-07T07:57:25.173Z,6.20
2019-02-07T08:00:10.047Z,5.90
2019-02-07T08:02:56.898Z,5.10
2019-02-07T08:05:41.770Z,6.37
2019-02-07T08:08:36.464Z,6.33
2019-02-07T08:11:25.466Z,6.80
2019-02-07T08:14:05.130Z,6.10
2019-02-07T08:17:02.472Z,5.37
2019-02-07T08:19:56.701Z,5.07
2019-02-07T08:22:44.733Z,4.47
2019-02-07T08:25:41.998Z,5.30
2019-02-07T08:28:26.646Z,4.63
2019-02-07T08:31:32.235Z,5.27
2019-02-07T08:34:23.509Z,4.20
2019-02-07T08:37:20.542Z,5.63
2019-02-07T08:40:11.686Z,4.00
2019-02-07T08:42:54.609Z,4.13
2019-02-07T08:45:55.033Z,5.63
2019-02-07T08:48:43.702Z,3.73
2019-02-07T08:51:34.799Z,4.77
2019-02-07T08:54:26.435Z,3.37
2019-02-07T08:57:26.625Z,4.13
2019-02-07T09:00:20.923Z,3.27
2019-02-07T09:03:07.952Z,4.70
2019-02-07T09:05:55.128Z,3.77
2019-02-07T09:08:39.025Z,4.30
2019-02-07T09:11:30.300Z,3.90
2019-02-07T09:14:33.797Z,4.47
2019-02-07T09:17:37.296Z,3.93
2019-02-07T09:20:32.247Z,3.93
2019-02-07T09:23:20.768Z,4.43
2019-02-07T09:26:18.096Z,5.00
2019-02-07T09:29:15.314Z,4.30
2019-02-07T09:32:02.087Z,3.87
2019-02-07T09:34:39.044Z,4.20
2019-02-07T09:37:39.499Z,3.93
2019-02-07T09:40:31.295Z,4.27
2019-02-07T09:43:25.637Z,3.73
2019-02-07T09:46:23.040Z,3.80
2019-02-07T09:49:17.089Z,4.37
2019-02-07T09:52:05.255Z,5.73
2019-02-07T09:54:56.466Z,4.37
2019-02-07T09:57:34.578Z,4.37
2019-02-07T10:00:20.204Z,4.40
2019-02-07T10:02:56.036Z,5.87
2019-02-07T10:05:59.526Z,6.60
2019-02-07T10:08:51.117Z,4.90
2019-02-07T10:11:39.671Z,7.20
2019-02-07T10:14:27.649Z,5.40
2019-02-07T10:17:14.429Z,7.80
2019-02-07T10:19:54.674Z,4.77
2019-02-07T10:22:46.152Z,5.47
2019-02-07T10:25:56.652Z,5.47
2019-02-07T10:28:45.713Z,6.17
2019-02-07T10:31:34.659Z,6.27
2019-02-07T10:34:26.394Z,6.03
2019-02-07T10:37:07.435Z,6.23
2019-02-07T10:39:55.991Z,5.67
2019-02-07T10:42:56.606Z,6.17
2019-02-07T10:45:52.107Z,6.47
2019-02-07T10:48:44.255Z,6.13
2019-02-07T10:51:24.163Z,5.80
2019-02-07T10:54:11.139Z,6.80
2019-02-07T10:56:52.539Z,5.97
2019-02-07T10:59:37.426Z,6.00
2019-02-07T11:02:32.737Z,6.13
2019-02-07T11:05:22.373Z,6.47
2019-02-07T11:08:19.872Z,6.00
2019-02-07T11:11:10.490Z,6.17
2019-02-07T11:13:59.132Z,6.47
2019-02-07T11:16:48.608Z,6.17
2019-02-07T11:19:37.029Z,6.40
2019-02-07T11:22:28.732Z,6.93
2019-02-07T11:25:35.274Z,6.43
2019-02-07T11:28:38.784Z,5.63
2019-02-07T11:31:26.007Z,6.27
2019-02-07T11:34:07.275Z,6.00
2019-02-07T11:36:54.224Z,6.10
2019-02-07T11:39:42.112Z,6.10
2019-02-07T11:42:34.676Z,5.50
2019-02-07T11:45:14.367Z,5.97
2019-02-07T11:48:03.312Z,6.30
2019-02-07T11:51:09.729Z,5.73
2019-02-07T11:54:11.325Z,5.40
2019-02-07T11:57:03.516Z,6.20
2019-02-07T11:59:46.608Z,5.90
2019-02-07T12:02:35.323Z,5.70
2019-02-07T12:05:26.245Z,4.70
2019-02-07T12:08:24.664Z,4.73
2019-02-07T12:11:19.089Z,5.20
2019-02-07T12:14:09.859Z,4.67
2019-02-07T12:16:56.724Z,4.80
2019-02-07T12:19:54.784Z,5.70
2019-02-07T12:22:34.015Z,4.60
2019-02-07T12:25:22.753Z,3.80
2019-02-07T12:28:09.704Z,4.50
2019-02-07T12:30:58.404Z,4.10
2019-02-07T12:34:01.892Z,3.97
2019-02-07T12:36:50.370Z,4.47
2019-02-07T12:39:37.266Z,4.63
2019-02-07T12:42:25.208Z,4.00
2019-02-07T12:45:15.050Z,4.60
2019-02-07T12:48:01.886Z,4.50
2019-02-07T12:50:48.707Z,4.30
2019-02-07T12:53:36.844Z,4.70
2019-02-07T12:56:33.652Z,4.63
2019-02-07T12:59:22.260Z,4.30
2019-02-07T13:02:10.437Z,4.17
2019-02-07T13:05:11.029Z,5.17
2019-02-07T13:08:12.814Z,4.23
2019-02-07T13:11:16.278Z,4.53
2019-02-07T13:14:16.743Z,6.03
2019-02-07T13:17:14.610Z,3.57
2019-02-07T13:20:17.906Z,4.70
2019-02-07T13:23:04.819Z,3.90
2019-02-07T13:25:48.769Z,3.90
2019-02-07T13:28:43.337Z,3.70
2019-02-07T13:31:32.574Z,4.27
2019-02-07T13:34:32.025Z,4.00
2019-02-07T13:37:19.366Z,3.70
2019-02-07T13:40:16.638Z,4.00
2019-02-07T13:43:11.260Z,4.07
2019-02-07T13:45:59.781Z,4.87
2019-02-07T13:49:00.395Z,5.83
2019-02-07T13:51:50.120Z,6.07
2019-02-07T13:54:50.449Z,5.23
2019-02-07T13:57:37.263Z,4.03
2019-02-07T14:00:17.820Z,3.97
2019-02-07T14:03:24.324Z,4.10
2019-02-07T14:06:06.972Z,4.23
2019-02-07T14:08:54.208Z,4.60
2019-02-07T14:11:41.173Z,4.77
2019-02-07T14:14:20.634Z,4.17
2019-02-07T14:17:07.503Z,4.70
2019-02-07T14:20:03.642Z,4.73
2019-02-07T14:22:52.245Z,5.50
2019-02-07T14:25:50.326Z,4.30
2019-02-07T14:28:39.299Z,4.73
2019-02-07T14:31:34.797Z,4.73
2019-02-07T14:34:24.440Z,4.57
2019-02-07T14:37:15.680Z,5.63
2019-02-07T14:40:19.187Z,4.37
2019-02-07T14:43:09.438Z,4.60
2019-02-07T14:45:47.780Z,3.93
2019-02-07T14:48:24.136Z,4.40
2019-02-07T14:50:54.807Z,5.67
2019-02-07T14:53:25.735Z,4.60
2019-02-07T14:55:55.344Z,4.53
2019-02-07T14:58:24.961Z,3.93
2019-02-07T15:00:56.243Z,4.67
2019-02-07T15:03:26.117Z,4.90
2019-02-07T15:05:55.717Z,5.10
2019-02-07T15:08:26.433Z,4.73
2019-02-07T15:10:58.855Z,4.70
2019-02-07T15:13:28.480Z,5.10
2019-02-07T15:15:58.104Z,4.37
2019-02-07T15:18:27.698Z,4.10
2019-02-07T15:21:00.233Z,4.03
2019-02-07T15:23:29.852Z,4.40
2019-02-07T15:25:59.391Z,5.00
2019-02-07T15:28:30.173Z,4.20
2019-02-07T15:30:59.047Z,4.67
2019-02-07T15:33:28.679Z,5.37
2019-02-07T15:35:58.281Z,8.57
2019-02-07T15:38:27.839Z,12.10
2019-02-07T15:40:57.939Z,48.43
2019-02-07T15:43:29.628Z,15.17
2019-02-07T15:46:00.521Z,6.90
2019-02-07T15:48:30.108Z,9.20
2019-02-07T15:50:59.778Z,7.17
2019-02-07T15:53:29.538Z,7.40
2019-02-07T15:56:02.182Z,6.97
2019-02-07T15:58:45.995Z,8.33
2019-02-07T16:01:38.369Z,8.47
2019-02-07T16:04:20.897Z,6.40
2019-02-07T16:06:52.388Z,6.77
2019-02-07T16:09:22.489Z,6.97
2019-02-07T16:11:53.520Z,7.27
2019-02-07T16:14:23.825Z,7.97
2019-02-07T16:16:53.380Z,10.27
2019-02-07T16:19:26.574Z,10.10
2019-02-07T16:21:56.182Z,9.33
2019-02-07T16:24:50.762Z,11.93
2019-02-07T16:27:21.863Z,12.20
2019-02-07T16:29:51.667Z,12.87
2019-02-07T16:32:21.867Z,13.40
2019-02-07T16:34:54.070Z,12.80
2019-02-07T16:37:23.549Z,10.60
2019-02-07T16:39:53.266Z,12.40
2019-02-07T16:42:24.605Z,13.87
2019-02-07T16:44:54.144Z,13.37
2019-02-07T16:47:23.688Z,12.93
2019-02-07T16:49:53.155Z,10.53
2019-02-07T16:52:23.517Z,9.70
2019-02-07T16:54:55.877Z,9.57
2019-02-07T16:57:27.861Z,8.57
2019-02-07T16:59:57.421Z,9.63
2019-02-07T17:02:29.235Z,10.73
2019-02-07T17:04:58.692Z,10.23
2019-02-07T17:07:28.320Z,12.57
2019-02-07T17:09:59.456Z,17.00
2019-02-07T17:12:28.993Z,16.53
2019-02-07T17:14:58.809Z,14.23
2019-02-07T17:17:28.562Z,13.43
2019-02-07T17:20:00.207Z,11.73
2019-02-07T17:22:31.029Z,14.27
2019-02-07T17:25:00.505Z,15.90
2019-02-07T17:27:30.034Z,16.47
2019-02-07T17:29:59.540Z,15.20
2019-02-07T17:32:30.027Z,15.40
2019-02-07T17:34:59.475Z,14.47
2019-02-07T17:37:29.212Z,15.03
2019-02-07T17:39:58.685Z,14.17
2019-02-07T17:42:28.527Z,14.90
2019-02-07T17:44:58.060Z,14.20
2019-02-07T17:47:29.878Z,13.17
2019-02-07T17:50:01.677Z,14.70
2019-02-07T17:52:31.442Z,13.93
2019-02-07T17:55:00.971Z,15.67
2019-02-07T17:57:30.446Z,15.27
2019-02-07T17:59:59.910Z,20.70
2019-02-07T18:02:29.825Z,17.37
2019-02-07T18:05:00.405Z,18.60
2019-02-07T18:07:31.705Z,18.00
2019-02-07T18:10:03.138Z,17.07
2019-02-07T18:12:32.431Z,18.03
2019-02-07T18:15:01.967Z,16.10
2019-02-07T18:17:31.492Z,16.13
2019-02-07T18:20:01.353Z,16.80
2019-02-07T18:22:32.770Z,15.80
2019-02-07T18:25:02.233Z,16.47
2019-02-07T18:27:34.827Z,16.90
2019-02-07T18:30:07.590Z,16.90
2019-02-07T18:32:37.608Z,16.97
2019-02-07T18:35:10.158Z,16.13
2019-02-07T18:37:39.672Z,16.83
2019-02-07T18:40:12.304Z,16.60
2019-02-07T18:42:43.259Z,17.17
2019-02-07T18:45:14.668Z,16.10
2019-02-07T18:47:45.562Z,16.03
2019-02-07T18:50:34.960Z,15.90
2019-02-07T18:53:06.585Z,15.67
2019-02-07T18:55:36.312Z,21.53
2019-02-07T18:58:07.073Z,19.90
2019-02-07T19:00:36.979Z,19.60
2019-02-07T19:03:07.129Z,17.67
2019-02-07T19:05:38.406Z,23.07
2019-02-07T19:08:08.155Z,26.60
2019-02-07T19:10:40.594Z,26.63
2019-02-07T19:13:10.550Z,22.93
2019-02-07T19:15:50.200Z,24.30
2019-02-07T19:18:19.904Z,22.90
2019-02-07T19:20:50.028Z,23.83
2019-02-07T19:23:20.145Z,21.07
2019-02-07T19:25:52.328Z,21.90
2019-02-07T19:28:22.065Z,20.60
2019-02-07T19:30:52.144Z,20.27
2019-02-07T19:33:23.401Z,17.87
2019-02-07T19:35:53.002Z,18.97
2019-02-07T19:38:22.996Z,18.77
2019-02-07T19:40:53.196Z,16.40
2019-02-07T19:43:24.011Z,16.97
2019-02-07T19:45:53.807Z,16.50
2019-02-07T19:48:26.035Z,18.27
2019-02-07T19:50:56.866Z,15.07
2019-02-07T19:53:26.682Z,15.90
2019-02-07T19:55:56.452Z,14.90
2019-02-07T19:58:37.804Z,24.00
2019-02-07T20:01:08.288Z,22.10
2019-02-07T20:03:40.893Z,18.00
2019-02-07T20:06:11.195Z,20.30
2019-02-07T20:08:42.647Z,22.47
2019-02-07T20:11:13.618Z,25.50
2019-02-07T20:13:52.424Z,19.60
2019-02-07T20:16:23.369Z,17.30
2019-02-07T20:18:54.616Z,18.87
2019-02-07T20:21:25.938Z,21.97
2019-02-07T20:23:55.514Z,19.80
2019-02-07T20:26:25.204Z,19.73
2019-02-07T20:28:54.957Z,20.63
2019-02-07T20:31:24.767Z,20.73
2019-02-07T20:33:56.524Z,19.20
2019-02-07T20:36:26.259Z,21.73
2019-02-07T20:38:56.064Z,19.93
2019-02-07T20:41:25.676Z,27.67
2019-02-07T20:43:55.191Z,22.30
2019-02-07T20:46:24.781Z,20.83
2019-02-07T20:48:54.413Z,21.37
2019-02-07T20:51:23.931Z,21.13
2019-02-07T20:53:55.136Z,23.30
2019-02-07T20:56:25.846Z,21.10
2019-02-07T20:58:55.357Z,20.77
2019-02-07T21:01:24.847Z,20.77
2019-02-07T21:03:54.600Z,20.03
2019-02-07T21:06:25.568Z,20.03
2019-02-07T21:08:55.361Z,18.70
2019-02-07T21:11:24.823Z,18.87
2019-02-07T21:13:55.353Z,18.83
2019-02-07T21:16:25.073Z,20.43
2019-02-07T21:18:54.797Z,22.27
2019-02-07T21:21:24.301Z,21.00
2019-02-07T21:23:53.733Z,20.17
2019-02-07T21:26:23.946Z,19.60
2019-02-07T21:28:53.447Z,19.43
2019-02-07T21:31:24.636Z,21.17
2019-02-07T21:33:54.078Z,20.40
2019-02-07T21:36:24.884Z,20.73
2019-02-07T21:38:54.437Z,21.77
2019-02-07T21:41:24.826Z,19.03
2019-02-07T21:43:54.336Z,19.57
2019-02-07T21:46:23.745Z,19.33
2019-02-07T21:48:53.167Z,19.43
2019-02-07T21:51:22.898Z,21.70
2019-02-07T21:53:52.362Z,21.77
2019-02-07T21:56:23.912Z,22.33
2019-02-07T21:58:53.339Z,24.10
2019-02-07T22:01:25.000Z,24.20
2019-02-07T22:03:58.707Z,24.97
2019-02-07T22:06:29.671Z,23.30
2019-02-07T22:08:59.164Z,50.43
2019-02-07T22:11:31.418Z,45.67
2019-02-07T22:14:00.956Z,28.57
2019-02-07T22:16:30.423Z,22.20
2019-02-07T22:19:00.088Z,19.37
2019-02-07T22:21:29.581Z,17.93
2019-02-07T22:24:00.439Z,18.83
2019-02-07T22:26:29.921Z,18.93
2019-02-07T22:28:59.419Z,18.37
2019-02-07T22:31:28.920Z,18.70
2019-02-07T22:33:59.825Z,18.27
2019-02-07T22:36:29.605Z,18.03
2019-02-07T22:39:02.848Z,17.30
2019-02-07T22:41:32.323Z,17.00
2019-02-07T22:44:02.921Z,15.17
2019-02-07T22:46:34.917Z,15.53
2019-02-07T22:49:04.889Z,14.67
2019-02-07T22:51:34.336Z,13.53
2019-02-07T22:54:03.879Z,15.20
2019-02-07T22:56:44.922Z,12.73
2019-02-07T22:59:24.718Z,12.00
2019-02-07T23:01:57.798Z,12.67
2019-02-07T23:04:28.513Z,12.97
2019-02-07T23:06:58.007Z,12.40
2019-02-07T23:09:29.854Z,12.93
2019-02-07T23:11:59.446Z,13.40
2019-02-07T23:14:29.267Z,13.40
2019-02-07T23:17:02.330Z,13.77
2019-02-07T23:19:35.472Z,14.20
2019-02-07T23:22:05.930Z,15.17
2019-02-07T23:24:35.958Z,14.60
2019-02-07T23:27:05.883Z,12.63
2019-02-07T23:29:35.795Z,14.27
2019-02-07T23:32:06.871Z,16.73
2019-02-07T23:34:38.021Z,18.00
2019-02-07T23:37:07.506Z,18.00
2019-02-07T23:39:37.063Z,18.93
2019-02-07T23:42:06.616Z,18.97
2019-02-07T23:44:36.200Z,18.13
2019-02-07T23:47:06.497Z,16.10
2019-02-07T23:49:38.633Z,17.10
2019-02-07T23:52:08.152Z,20.00
2019-02-07T23:54:37.691Z,19.13
2019-02-07T23:57:07.131Z,17.03
2019-02-07T23:59:38.685Z,17.30
